sensor_id;sensor_type;location;lat;lon;timestamp;P1;durP1;ratioP1;P2;durP2;ratioP2
24206;SDS011;12351;52.284;9.160;2024-03-07T00:02:34;14.45;;;9.58;;
24206;SDS011;12351;52.284;9.160;2024-03-07T00:05:23;12.18;;;8.68;;
24206;SDS011;12351;52.284;9.160;2024-03-07T00:08:10;13.28;;;9.15;;
24206;SDS011;12351;52.284;9.160;2024-03-07T00:10:58;13.62;;;8.98;;
24206;SDS011;12351;52.284;9.160;2024-03-07T00:13:46;13.43;;;9.50;;
24206;SDS011;12351;52.284;9.160;2024-03-07T00:16:35;13.30;;;9.13;;
24206;SDS011;12351;52.284;9.160;2024-03-07T00:19:22;13.50;;;9.08;;
24206;SDS011;12351;52.284;9.160;2024-03-07T00:22:12;12.47;;;8.53;;
24206;SDS011;12351;52.284;9.160;2024-03-07T00:24:59;13.75;;;8.95;;
24206;SDS011;12351;52.284;9.160;2024-03-07T00:27:46;15.32;;;8.93;;
24206;SDS011;12351;52.284;9.160;2024-03-07T00:30:35;14.00;;;9.10;;
24206;SDS011;12351;52.284;9.160;2024-03-07T00:33:22;12.58;;;8.43;;
24206;SDS011;12351;52.284;9.160;2024-03-07T00:36:11;13.90;;;9.20;;
24206;SDS011;12351;52.284;9.160;2024-03-07T00:38:59;16.25;;;9.38;;
24206;SDS011;12351;52.284;9.160;2024-03-07T00:41:45;14.67;;;9.67;;
24206;SDS011;12351;52.284;9.160;2024-03-07T00:44:32;14.60;;;10.03;;
24206;SDS011;12351;52.284;9.160;2024-03-07T00:47:20;16.33;;;9.60;;
24206;SDS011;12351;52.284;9.160;2024-03-07T00:50:07;15.45;;;9.40;;
24206;SDS011;12351;52.284;9.160;2024-03-07T00:52:56;14.98;;;9.83;;
24206;SDS011;12351;52.284;9.160;2024-03-07T00:55:44;14.87;;;9.85;;
24206;SDS011;12351;52.284;9.160;2024-03-07T00:58:31;15.97;;;10.10;;
24206;SDS011;12351;52.284;9.160;2024-03-07T01:01:19;17.20;;;9.73;;
24206;SDS011;12351;52.284;9.160;2024-03-07T01:04:05;14.00;;;9.77;;
24206;SDS011;12351;52.284;9.160;2024-03-07T01:06:53;12.73;;;9.23;;
24206;SDS011;12351;52.284;9.160;2024-03-07T01:09:40;13.75;;;9.95;;
24206;SDS011;12351;52.284;9.160;2024-03-07T01:12:28;14.77;;;9.53;;
24206;SDS011;12351;52.284;9.160;2024-03-07T01:15:15;14.50;;;9.40;;
24206;SDS011;12351;52.284;9.160;2024-03-07T01:18:02;15.53;;;9.67;;
24206;SDS011;12351;52.284;9.160;2024-03-07T01:20:49;14.67;;;9.67;;
24206;SDS011;12351;52.284;9.160;2024-03-07T01:23:37;14.73;;;10.00;;
24206;SDS011;12351;52.284;9.160;2024-03-07T01:26:23;14.07;;;9.33;;
24206;SDS011;12351;52.284;9.160;2024-03-07T01:29:11;13.67;;;9.60;;
24206;SDS011;12351;52.284;9.160;2024-03-07T01:31:58;15.33;;;10.10;;
24206;SDS011;12351;52.284;9.160;2024-03-07T01:34:44;15.77;;;9.47;;
24206;SDS011;12351;52.284;9.160;2024-03-07T01:37:31;12.77;;;9.00;;
24206;SDS011;12351;52.284;9.160;2024-03-07T01:40:19;12.27;;;8.67;;
24206;SDS011;12351;52.284;9.160;2024-03-07T01:43:06;14.13;;;9.23;;
24206;SDS011;12351;52.284;9.160;2024-03-07T01:45:54;13.47;;;9.20;;
24206;SDS011;12351;52.284;9.160;2024-03-07T01:48:43;11.13;;;8.17;;
24206;SDS011;12351;52.284;9.160;2024-03-07T01:51:34;15.47;;;8.63;;
24206;SDS011;12351;52.284;9.160;2024-03-07T01:54:22;15.27;;;8.47;;
24206;SDS011;12351;52.284;9.160;2024-03-07T01:57:10;12.97;;;8.97;;
24206;SDS011;12351;52.284;9.160;2024-03-07T01:59:59;14.43;;;8.37;;
24206;SDS011;12351;52.284;9.160;2024-03-07T02:02:48;15.00;;;9.03;;
24206;SDS011;12351;52.284;9.160;2024-03-07T02:05:36;13.93;;;8.93;;
24206;SDS011;12351;52.284;9.160;2024-03-07T02:08:23;12.57;;;8.07;;
24206;SDS011;12351;52.284;9.160;2024-03-07T02:11:11;12.60;;;8.23;;
24206;SDS011;12351;52.284;9.160;2024-03-07T02:13:58;14.30;;;8.43;;
24206;SDS011;12351;52.284;9.160;2024-03-07T02:16:44;12.23;;;8.23;;
24206;SDS011;12351;52.284;9.160;2024-03-07T02:19:30;13.37;;;8.47;;
24206;SDS011;12351;52.284;9.160;2024-03-07T02:22:17;13.10;;;8.13;;
24206;SDS011;12351;52.284;9.160;2024-03-07T02:25:05;13.67;;;8.73;;
24206;SDS011;12351;52.284;9.160;2024-03-07T02:27:54;13.23;;;8.57;;
24206;SDS011;12351;52.284;9.160;2024-03-07T02:30:40;15.43;;;8.90;;
24206;SDS011;12351;52.284;9.160;2024-03-07T02:33:28;15.67;;;9.50;;
24206;SDS011;12351;52.284;9.160;2024-03-07T02:36:16;13.83;;;9.40;;
24206;SDS011;12351;52.284;9.160;2024-03-07T02:39:03;16.50;;;9.60;;
24206;SDS011;12351;52.284;9.160;2024-03-07T02:41:51;15.90;;;9.47;;
24206;SDS011;12351;52.284;9.160;2024-03-07T02:44:38;13.07;;;9.10;;
24206;SDS011;12351;52.284;9.160;2024-03-07T02:47:25;12.73;;;8.87;;
24206;SDS011;12351;52.284;9.160;2024-03-07T02:50:11;14.77;;;9.17;;
24206;SDS011;12351;52.284;9.160;2024-03-07T02:52:59;15.57;;;8.60;;
24206;SDS011;12351;52.284;9.160;2024-03-07T02:55:48;12.33;;;8.57;;
24206;SDS011;12351;52.284;9.160;2024-03-07T02:58:34;13.27;;;8.17;;
24206;SDS011;12351;52.284;9.160;2024-03-07T03:01:22;15.57;;;9.13;;
24206;SDS011;12351;52.284;9.160;2024-03-07T03:04:09;12.13;;;7.80;;
24206;SDS011;12351;52.284;9.160;2024-03-07T03:06:55;12.43;;;8.13;;
24206;SDS011;12351;52.284;9.160;2024-03-07T03:09:43;14.13;;;8.63;;
24206;SDS011;12351;52.284;9.160;2024-03-07T03:12:29;13.93;;;8.63;;
24206;SDS011;12351;52.284;9.160;2024-03-07T03:15:16;12.00;;;8.03;;
24206;SDS011;12351;52.284;9.160;2024-03-07T03:18:05;14.03;;;8.80;;
24206;SDS011;12351;52.284;9.160;2024-03-07T03:20:52;14.17;;;8.73;;
24206;SDS011;12351;52.284;9.160;2024-03-07T03:23:38;15.07;;;9.00;;
24206;SDS011;12351;52.284;9.160;2024-03-07T03:26:25;15.30;;;8.50;;
24206;SDS011;12351;52.284;9.160;2024-03-07T03:29:12;16.10;;;8.77;;
24206;SDS011;12351;52.284;9.160;2024-03-07T03:32:00;14.27;;;9.10;;
24206;SDS011;12351;52.284;9.160;2024-03-07T03:34:47;14.53;;;9.13;;
24206;SDS011;12351;52.284;9.160;2024-03-07T03:37:34;15.77;;;10.20;;
24206;SDS011;12351;52.284;9.160;2024-03-07T03:40:20;18.13;;;10.73;;
24206;SDS011;12351;52.284;9.160;2024-03-07T03:43:07;18.73;;;11.23;;
24206;SDS011;12351;52.284;9.160;2024-03-07T03:45:54;15.20;;;10.60;;
24206;SDS011;12351;52.284;9.160;2024-03-07T03:48:42;19.60;;;10.63;;
24206;SDS011;12351;52.284;9.160;2024-03-07T03:51:29;16.47;;;10.03;;
24206;SDS011;12351;52.284;9.160;2024-03-07T03:54:17;18.53;;;10.40;;
24206;SDS011;12351;52.284;9.160;2024-03-07T03:57:05;16.90;;;10.87;;
24206;SDS011;12351;52.284;9.160;2024-03-07T03:59:52;20.30;;;11.23;;
24206;SDS011;12351;52.284;9.160;2024-03-07T04:02:40;19.57;;;11.80;;
24206;SDS011;12351;52.284;9.160;2024-03-07T04:05:29;19.00;;;10.87;;
24206;SDS011;12351;52.284;9.160;2024-03-07T04:08:15;17.63;;;10.53;;
24206;SDS011;12351;52.284;9.160;2024-03-07T04:11:04;17.70;;;10.80;;
24206;SDS011;12351;52.284;9.160;2024-03-07T04:13:52;19.23;;;10.53;;
24206;SDS011;12351;52.284;9.160;2024-03-07T04:16:39;18.47;;;10.40;;
24206;SDS011;12351;52.284;9.160;2024-03-07T04:19:26;17.97;;;10.87;;
24206;SDS011;12351;52.284;9.160;2024-03-07T04:22:14;19.83;;;10.93;;
24206;SDS011;12351;52.284;9.160;2024-03-07T04:25:03;18.03;;;11.20;;
24206;SDS011;12351;52.284;9.160;2024-03-07T04:30:40;17.87;;;10.00;;
24206;SDS011;12351;52.284;9.160;2024-03-07T04:33:28;17.47;;;11.47;;
24206;SDS011;12351;52.284;9.160;2024-03-07T04:36:14;18.13;;;11.07;;
24206;SDS011;12351;52.284;9.160;2024-03-07T04:39:01;18.67;;;10.50;;
24206;SDS011;12351;52.284;9.160;2024-03-07T04:41:49;16.23;;;10.37;;
24206;SDS011;12351;52.284;9.160;2024-03-07T04:44:38;19.93;;;11.03;;
24206;SDS011;12351;52.284;9.160;2024-03-07T04:47:25;19.67;;;10.43;;
24206;SDS011;12351;52.284;9.160;2024-03-07T04:50:12;18.80;;;11.63;;
24206;SDS011;12351;52.284;9.160;2024-03-07T04:53:01;18.87;;;10.83;;
24206;SDS011;12351;52.284;9.160;2024-03-07T04:55:49;21.17;;;11.80;;
24206;SDS011;12351;52.284;9.160;2024-03-07T04:58:35;19.13;;;11.60;;
24206;SDS011;12351;52.284;9.160;2024-03-07T05:01:22;19.57;;;11.63;;
24206;SDS011;12351;52.284;9.160;2024-03-07T05:04:10;21.00;;;12.40;;
24206;SDS011;12351;52.284;9.160;2024-03-07T05:06:58;20.07;;;11.53;;
24206;SDS011;12351;52.284;9.160;2024-03-07T05:09:44;20.30;;;12.23;;
24206;SDS011;12351;52.284;9.160;2024-03-07T05:12:31;21.07;;;12.77;;
24206;SDS011;12351;52.284;9.160;2024-03-07T05:15:19;19.97;;;11.20;;
24206;SDS011;12351;52.284;9.160;2024-03-07T05:18:05;21.03;;;12.87;;
24206;SDS011;12351;52.284;9.160;2024-03-07T05:20:51;19.33;;;12.30;;
24206;SDS011;12351;52.284;9.160;2024-03-07T05:23:38;21.37;;;13.33;;
24206;SDS011;12351;52.284;9.160;2024-03-07T05:26:26;23.20;;;12.63;;
24206;SDS011;12351;52.284;9.160;2024-03-07T05:29:13;21.67;;;13.03;;
24206;SDS011;12351;52.284;9.160;2024-03-07T05:34:53;21.07;;;12.60;;
24206;SDS011;12351;52.284;9.160;2024-03-07T05:37:40;21.10;;;12.07;;
24206;SDS011;12351;52.284;9.160;2024-03-07T05:40:29;25.30;;;13.27;;
24206;SDS011;12351;52.284;9.160;2024-03-07T05:43:19;22.10;;;13.30;;
24206;SDS011;12351;52.284;9.160;2024-03-07T05:46:06;20.13;;;11.70;;
24206;SDS011;12351;52.284;9.160;2024-03-07T05:48:56;20.73;;;11.90;;
24206;SDS011;12351;52.284;9.160;2024-03-07T05:51:42;21.13;;;13.07;;
24206;SDS011;12351;52.284;9.160;2024-03-07T05:54:31;21.20;;;12.83;;
24206;SDS011;12351;52.284;9.160;2024-03-07T05:57:19;21.23;;;12.23;;
24206;SDS011;12351;52.284;9.160;2024-03-07T06:00:06;19.97;;;12.50;;
24206;SDS011;12351;52.284;9.160;2024-03-07T06:02:55;21.47;;;12.87;;
24206;SDS011;12351;52.284;9.160;2024-03-07T06:05:42;24.20;;;13.40;;
24206;SDS011;12351;52.284;9.160;2024-03-07T06:08:31;23.57;;;13.60;;
24206;SDS011;12351;52.284;9.160;2024-03-07T06:11:18;25.03;;;13.50;;
24206;SDS011;12351;52.284;9.160;2024-03-07T06:14:06;25.20;;;14.80;;
24206;SDS011;12351;52.284;9.160;2024-03-07T06:16:53;22.87;;;14.20;;
24206;SDS011;12351;52.284;9.160;2024-03-07T06:19:42;25.63;;;14.40;;
24206;SDS011;12351;52.284;9.160;2024-03-07T06:22:29;24.97;;;14.37;;
24206;SDS011;12351;52.284;9.160;2024-03-07T06:25:17;25.30;;;14.90;;
24206;SDS011;12351;52.284;9.160;2024-03-07T06:28:05;25.13;;;14.60;;
24206;SDS011;12351;52.284;9.160;2024-03-07T06:30:53;27.73;;;14.87;;
24206;SDS011;12351;52.284;9.160;2024-03-07T06:33:40;27.90;;;14.63;;
24206;SDS011;12351;52.284;9.160;2024-03-07T06:36:28;26.43;;;15.57;;
24206;SDS011;12351;52.284;9.160;2024-03-07T06:39:14;30.57;;;16.20;;
24206;SDS011;12351;52.284;9.160;2024-03-07T06:42:01;29.27;;;15.50;;
24206;SDS011;12351;52.284;9.160;2024-03-07T06:44:48;27.40;;;15.50;;
24206;SDS011;12351;52.284;9.160;2024-03-07T06:47:35;33.90;;;16.10;;
24206;SDS011;12351;52.284;9.160;2024-03-07T06:50:21;32.63;;;16.83;;
24206;SDS011;12351;52.284;9.160;2024-03-07T06:53:08;31.50;;;16.50;;
24206;SDS011;12351;52.284;9.160;2024-03-07T06:55:55;39.17;;;18.10;;
24206;SDS011;12351;52.284;9.160;2024-03-07T06:58:42;34.20;;;17.60;;
24206;SDS011;12351;52.284;9.160;2024-03-07T07:01:30;36.87;;;18.43;;
24206;SDS011;12351;52.284;9.160;2024-03-07T07:04:18;33.07;;;17.00;;
24206;SDS011;12351;52.284;9.160;2024-03-07T07:07:04;36.47;;;19.10;;
24206;SDS011;12351;52.284;9.160;2024-03-07T07:09:52;38.20;;;19.47;;
24206;SDS011;12351;52.284;9.160;2024-03-07T07:12:40;38.10;;;18.63;;
24206;SDS011;12351;52.284;9.160;2024-03-07T07:15:26;34.07;;;18.30;;
24206;SDS011;12351;52.284;9.160;2024-03-07T07:18:13;35.73;;;18.27;;
24206;SDS011;12351;52.284;9.160;2024-03-07T07:21:00;34.43;;;18.63;;
24206;SDS011;12351;52.284;9.160;2024-03-07T07:23:47;32.87;;;18.00;;
24206;SDS011;12351;52.284;9.160;2024-03-07T07:26:33;33.10;;;17.73;;
24206;SDS011;12351;52.284;9.160;2024-03-07T07:29:20;33.33;;;17.93;;
24206;SDS011;12351;52.284;9.160;2024-03-07T07:32:08;33.00;;;17.93;;
24206;SDS011;12351;52.284;9.160;2024-03-07T07:34:56;29.53;;;16.27;;
24206;SDS011;12351;52.284;9.160;2024-03-07T07:37:45;27.27;;;15.80;;
24206;SDS011;12351;52.284;9.160;2024-03-07T07:40:34;24.73;;;14.73;;
24206;SDS011;12351;52.284;9.160;2024-03-07T07:43:21;25.17;;;14.40;;
24206;SDS011;12351;52.284;9.160;2024-03-07T07:46:07;27.67;;;15.13;;
24206;SDS011;12351;52.284;9.160;2024-03-07T07:48:54;24.57;;;14.37;;
24206;SDS011;12351;52.284;9.160;2024-03-07T07:51:41;26.50;;;15.07;;
24206;SDS011;12351;52.284;9.160;2024-03-07T07:54:28;26.77;;;14.57;;
24206;SDS011;12351;52.284;9.160;2024-03-07T07:57:15;29.13;;;15.77;;
24206;SDS011;12351;52.284;9.160;2024-03-07T08:00:03;32.77;;;17.97;;
24206;SDS011;12351;52.284;9.160;2024-03-07T08:05:44;34.93;;;17.97;;
24206;SDS011;12351;52.284;9.160;2024-03-07T08:08:31;33.10;;;17.93;;
24206;SDS011;12351;52.284;9.160;2024-03-07T08:11:18;38.27;;;18.30;;
24206;SDS011;12351;52.284;9.160;2024-03-07T08:14:05;35.97;;;18.07;;
24206;SDS011;12351;52.284;9.160;2024-03-07T08:16:51;35.13;;;17.33;;
24206;SDS011;12351;52.284;9.160;2024-03-07T08:19:37;36.33;;;18.10;;
24206;SDS011;12351;52.284;9.160;2024-03-07T08:22:24;34.37;;;17.97;;
24206;SDS011;12351;52.284;9.160;2024-03-07T08:25:14;39.80;;;18.43;;
24206;SDS011;12351;52.284;9.160;2024-03-07T08:28:02;37.00;;;18.93;;
24206;SDS011;12351;52.284;9.160;2024-03-07T08:30:49;37.23;;;19.37;;
24206;SDS011;12351;52.284;9.160;2024-03-07T08:33:39;41.10;;;19.33;;
24206;SDS011;12351;52.284;9.160;2024-03-07T08:36:25;37.40;;;18.67;;
24206;SDS011;12351;52.284;9.160;2024-03-07T08:39:11;41.70;;;19.77;;
24206;SDS011;12351;52.284;9.160;2024-03-07T08:41:59;44.73;;;19.53;;
24206;SDS011;12351;52.284;9.160;2024-03-07T08:44:45;40.00;;;19.70;;
24206;SDS011;12351;52.284;9.160;2024-03-07T08:47:33;44.10;;;19.57;;
24206;SDS011;12351;52.284;9.160;2024-03-07T08:50:21;43.83;;;21.07;;
24206;SDS011;12351;52.284;9.160;2024-03-07T08:53:11;42.97;;;20.93;;
24206;SDS011;12351;52.284;9.160;2024-03-07T08:55:58;43.47;;;21.07;;
24206;SDS011;12351;52.284;9.160;2024-03-07T08:58:46;45.27;;;21.50;;
24206;SDS011;12351;52.284;9.160;2024-03-07T09:01:33;52.57;;;21.47;;
24206;SDS011;12351;52.284;9.160;2024-03-07T09:04:22;44.27;;;20.57;;
24206;SDS011;12351;52.284;9.160;2024-03-07T09:07:09;41.97;;;20.50;;
24206;SDS011;12351;52.284;9.160;2024-03-07T09:09:56;46.33;;;21.57;;
24206;SDS011;12351;52.284;9.160;2024-03-07T09:12:44;44.00;;;21.33;;
24206;SDS011;12351;52.284;9.160;2024-03-07T09:15:33;48.13;;;22.27;;
24206;SDS011;12351;52.284;9.160;2024-03-07T09:18:21;45.83;;;21.27;;
24206;SDS011;12351;52.284;9.160;2024-03-07T09:21:10;50.23;;;22.37;;
24206;SDS011;12351;52.284;9.160;2024-03-07T09:23:57;50.33;;;20.93;;
24206;SDS011;12351;52.284;9.160;2024-03-07T09:26:45;50.30;;;22.17;;
24206;SDS011;12351;52.284;9.160;2024-03-07T09:29:32;49.37;;;21.17;;
24206;SDS011;12351;52.284;9.160;2024-03-07T09:32:18;48.37;;;21.20;;
24206;SDS011;12351;52.284;9.160;2024-03-07T09:35:07;46.37;;;22.07;;
24206;SDS011;12351;52.284;9.160;2024-03-07T09:37:56;54.13;;;22.83;;
24206;SDS011;12351;52.284;9.160;2024-03-07T09:40:42;47.73;;;21.20;;
24206;SDS011;12351;52.284;9.160;2024-03-07T09:43:29;53.77;;;21.97;;
24206;SDS011;12351;52.284;9.160;2024-03-07T09:46:19;53.07;;;23.53;;
24206;SDS011;12351;52.284;9.160;2024-03-07T09:49:08;48.33;;;22.70;;
24206;SDS011;12351;52.284;9.160;2024-03-07T09:51:57;57.30;;;22.33;;
24206;SDS011;12351;52.284;9.160;2024-03-07T09:54:46;53.13;;;22.93;;
24206;SDS011;12351;52.284;9.160;2024-03-07T09:57:33;59.23;;;23.13;;
24206;SDS011;12351;52.284;9.160;2024-03-07T10:00:22;55.10;;;22.90;;
24206;SDS011;12351;52.284;9.160;2024-03-07T10:03:10;55.37;;;23.17;;
24206;SDS011;12351;52.284;9.160;2024-03-07T10:05:59;57.10;;;23.13;;
24206;SDS011;12351;52.284;9.160;2024-03-07T10:08:47;51.90;;;22.50;;
24206;SDS011;12351;52.284;9.160;2024-03-07T10:11:35;59.40;;;23.27;;
24206;SDS011;12351;52.284;9.160;2024-03-07T10:14:22;56.30;;;23.20;;
24206;SDS011;12351;52.284;9.160;2024-03-07T10:17:11;50.23;;;22.80;;
24206;SDS011;12351;52.284;9.160;2024-03-07T10:19:58;60.37;;;23.77;;
24206;SDS011;12351;52.284;9.160;2024-03-07T10:25:35;65.83;;;24.23;;
24206;SDS011;12351;52.284;9.160;2024-03-07T10:28:23;55.40;;;22.60;;
24206;SDS011;12351;52.284;9.160;2024-03-07T10:31:27;63.87;;;23.63;;
24206;SDS011;12351;52.284;9.160;2024-03-07T10:34:02;63.03;;;23.67;;
24206;SDS011;12351;52.284;9.160;2024-03-07T10:36:50;62.23;;;22.93;;
24206;SDS011;12351;52.284;9.160;2024-03-07T10:39:37;60.60;;;23.90;;
24206;SDS011;12351;52.284;9.160;2024-03-07T10:42:24;62.20;;;24.52;;
24206;SDS011;12351;52.284;9.160;2024-03-07T10:45:15;63.70;;;24.60;;
24206;SDS011;12351;52.284;9.160;2024-03-07T10:48:07;63.75;;;23.65;;
24206;SDS011;12351;52.284;9.160;2024-03-07T10:59:16;64.70;;;24.77;;
24206;SDS011;12351;52.284;9.160;2024-03-07T11:04:57;65.60;;;23.87;;
24206;SDS011;12351;52.284;9.160;2024-03-07T11:07:46;66.65;;;24.12;;
24206;SDS011;12351;52.284;9.160;2024-03-07T11:10:35;56.53;;;23.35;;
24206;SDS011;12351;52.284;9.160;2024-03-07T11:13:22;64.67;;;24.92;;
24206;SDS011;12351;52.284;9.160;2024-03-07T11:16:09;60.67;;;22.77;;
24206;SDS011;12351;52.284;9.160;2024-03-07T11:21:49;60.63;;;23.92;;
24206;SDS011;12351;52.284;9.160;2024-03-07T11:24:36;53.68;;;22.73;;
24206;SDS011;12351;52.284;9.160;2024-03-07T11:27:23;52.83;;;22.35;;
24206;SDS011;12351;52.284;9.160;2024-03-07T11:30:11;58.20;;;23.15;;
24206;SDS011;12351;52.284;9.160;2024-03-07T11:33:01;57.13;;;23.45;;
24206;SDS011;12351;52.284;9.160;2024-03-07T11:35:49;58.40;;;24.10;;
24206;SDS011;12351;52.284;9.160;2024-03-07T11:38:38;51.70;;;21.75;;
24206;SDS011;12351;52.284;9.160;2024-03-07T11:41:28;54.05;;;23.73;;
24206;SDS011;12351;52.284;9.160;2024-03-07T11:44:14;57.20;;;23.03;;
24206;SDS011;12351;52.284;9.160;2024-03-07T11:47:01;53.92;;;22.52;;
24206;SDS011;12351;52.284;9.160;2024-03-07T11:49:51;54.03;;;22.90;;
24206;SDS011;12351;52.284;9.160;2024-03-07T11:52:39;59.08;;;23.10;;
24206;SDS011;12351;52.284;9.160;2024-03-07T11:55:28;62.95;;;23.10;;
24206;SDS011;12351;52.284;9.160;2024-03-07T11:58:15;53.87;;;23.45;;
24206;SDS011;12351;52.284;9.160;2024-03-07T12:01:07;47.08;;;21.65;;
24206;SDS011;12351;52.284;9.160;2024-03-07T12:03:56;49.90;;;22.17;;
24206;SDS011;12351;52.284;9.160;2024-03-07T12:09:38;45.52;;;20.20;;
24206;SDS011;12351;52.284;9.160;2024-03-07T12:12:27;45.98;;;20.08;;
24206;SDS011;12351;52.284;9.160;2024-03-07T12:15:16;45.60;;;20.17;;
24206;SDS011;12351;52.284;9.160;2024-03-07T12:18:05;45.43;;;19.48;;
24206;SDS011;12351;52.284;9.160;2024-03-07T12:20:58;45.40;;;18.85;;
24206;SDS011;12351;52.284;9.160;2024-03-07T12:23:48;40.48;;;18.52;;
24206;SDS011;12351;52.284;9.160;2024-03-07T12:26:36;44.00;;;19.67;;
24206;SDS011;12351;52.284;9.160;2024-03-07T12:29:25;40.05;;;19.00;;
24206;SDS011;12351;52.284;9.160;2024-03-07T12:32:12;42.13;;;19.40;;
24206;SDS011;12351;52.284;9.160;2024-03-07T12:35:01;44.67;;;20.00;;
24206;SDS011;12351;52.284;9.160;2024-03-07T12:37:52;41.00;;;18.80;;
24206;SDS011;12351;52.284;9.160;2024-03-07T12:40:41;44.35;;;18.95;;
24206;SDS011;12351;52.284;9.160;2024-03-07T12:43:31;41.42;;;18.23;;
24206;SDS011;12351;52.284;9.160;2024-03-07T12:46:19;36.15;;;17.52;;
24206;SDS011;12351;52.284;9.160;2024-03-07T12:49:06;40.08;;;17.23;;
24206;SDS011;12351;52.284;9.160;2024-03-07T12:51:55;42.85;;;17.70;;
24206;SDS011;12351;52.284;9.160;2024-03-07T12:54:48;40.55;;;18.42;;
24206;SDS011;12351;52.284;9.160;2024-03-07T12:57:37;42.38;;;19.20;;
24206;SDS011;12351;52.284;9.160;2024-03-07T13:00:26;41.80;;;17.92;;
24206;SDS011;12351;52.284;9.160;2024-03-07T13:03:15;38.08;;;18.25;;
24206;SDS011;12351;52.284;9.160;2024-03-07T13:06:03;40.63;;;18.05;;
24206;SDS011;12351;52.284;9.160;2024-03-07T13:08:51;38.35;;;17.85;;
24206;SDS011;12351;52.284;9.160;2024-03-07T13:11:40;38.42;;;17.55;;
24206;SDS011;12351;52.284;9.160;2024-03-07T13:14:31;41.40;;;17.25;;
24206;SDS011;12351;52.284;9.160;2024-03-07T13:17:18;40.28;;;18.30;;
24206;SDS011;12351;52.284;9.160;2024-03-07T13:20:08;38.25;;;18.32;;
24206;SDS011;12351;52.284;9.160;2024-03-07T13:22:57;37.42;;;17.87;;
24206;SDS011;12351;52.284;9.160;2024-03-07T13:25:46;36.93;;;17.67;;
24206;SDS011;12351;52.284;9.160;2024-03-07T13:28:34;37.03;;;17.23;;
24206;SDS011;12351;52.284;9.160;2024-03-07T13:31:27;37.78;;;17.92;;
24206;SDS011;12351;52.284;9.160;2024-03-07T13:34:15;40.30;;;18.87;;
24206;SDS011;12351;52.284;9.160;2024-03-07T13:37:03;40.52;;;19.00;;
24206;SDS011;12351;52.284;9.160;2024-03-07T13:39:51;39.70;;;18.60;;
24206;SDS011;12351;52.284;9.160;2024-03-07T13:42:38;37.55;;;17.95;;
24206;SDS011;12351;52.284;9.160;2024-03-07T13:48:05;32.27;;;16.47;;
24206;SDS011;12351;52.284;9.160;2024-03-07T13:50:55;34.45;;;16.62;;
24206;SDS011;12351;52.284;9.160;2024-03-07T13:53:43;37.33;;;16.77;;
24206;SDS011;12351;52.284;9.160;2024-03-07T13:56:33;36.25;;;16.42;;
24206;SDS011;12351;52.284;9.160;2024-03-07T13:59:26;36.45;;;16.65;;
24206;SDS011;12351;52.284;9.160;2024-03-07T14:05:11;32.48;;;15.80;;
24206;SDS011;12351;52.284;9.160;2024-03-07T14:16:34;32.50;;;15.75;;
24206;SDS011;12351;52.284;9.160;2024-03-07T14:33:35;28.20;;;15.48;;
24206;SDS011;12351;52.284;9.160;2024-03-07T14:39:12;33.35;;;16.50;;
24206;SDS011;12351;52.284;9.160;2024-03-07T14:42:01;29.57;;;15.15;;
24206;SDS011;12351;52.284;9.160;2024-03-07T14:44:51;32.15;;;15.48;;
24206;SDS011;12351;52.284;9.160;2024-03-07T14:47:39;34.50;;;16.07;;
24206;SDS011;12351;52.284;9.160;2024-03-07T14:50:27;32.50;;;14.98;;
24206;SDS011;12351;52.284;9.160;2024-03-07T14:53:17;33.35;;;15.88;;
24206;SDS011;12351;52.284;9.160;2024-03-07T14:56:07;30.65;;;15.60;;
24206;SDS011;12351;52.284;9.160;2024-03-07T14:58:56;31.35;;;15.75;;
24206;SDS011;12351;52.284;9.160;2024-03-07T15:01:44;33.13;;;16.02;;
24206;SDS011;12351;52.284;9.160;2024-03-07T15:04:32;31.25;;;15.50;;
24206;SDS011;12351;52.284;9.160;2024-03-07T15:07:20;32.53;;;15.88;;
24206;SDS011;12351;52.284;9.160;2024-03-07T15:10:10;30.20;;;15.30;;
24206;SDS011;12351;52.284;9.160;2024-03-07T15:13:01;30.85;;;14.80;;
24206;SDS011;12351;52.284;9.160;2024-03-07T15:15:48;32.73;;;15.53;;
24206;SDS011;12351;52.284;9.160;2024-03-07T15:18:35;26.57;;;15.30;;
24206;SDS011;12351;52.284;9.160;2024-03-07T15:21:23;29.90;;;15.68;;
24206;SDS011;12351;52.284;9.160;2024-03-07T15:24:12;29.23;;;15.53;;
24206;SDS011;12351;52.284;9.160;2024-03-07T15:27:00;29.67;;;15.00;;
24206;SDS011;12351;52.284;9.160;2024-03-07T15:29:47;28.85;;;15.88;;
24206;SDS011;12351;52.284;9.160;2024-03-07T15:32:35;27.93;;;14.87;;
24206;SDS011;12351;52.284;9.160;2024-03-07T15:35:22;29.92;;;14.80;;
24206;SDS011;12351;52.284;9.160;2024-03-07T15:38:11;27.50;;;13.95;;
24206;SDS011;12351;52.284;9.160;2024-03-07T15:41:01;26.23;;;14.03;;
24206;SDS011;12351;52.284;9.160;2024-03-07T15:43:49;26.17;;;13.93;;
24206;SDS011;12351;52.284;9.160;2024-03-07T15:46:37;31.57;;;14.73;;
24206;SDS011;12351;52.284;9.160;2024-03-07T15:49:24;24.57;;;14.30;;
24206;SDS011;12351;52.284;9.160;2024-03-07T15:52:11;25.92;;;14.87;;
24206;SDS011;12351;52.284;9.160;2024-03-07T15:54:58;33.42;;;19.42;;
24206;SDS011;12351;52.284;9.160;2024-03-07T15:57:51;29.92;;;15.38;;
24206;SDS011;12351;52.284;9.160;2024-03-07T16:00:39;27.07;;;14.68;;
24206;SDS011;12351;52.284;9.160;2024-03-07T16:03:27;26.40;;;14.30;;
24206;SDS011;12351;52.284;9.160;2024-03-07T16:06:14;29.63;;;14.28;;
24206;SDS011;12351;52.284;9.160;2024-03-07T16:09:02;27.80;;;14.38;;
24206;SDS011;12351;52.284;9.160;2024-03-07T16:11:49;23.35;;;13.10;;
24206;SDS011;12351;52.284;9.160;2024-03-07T16:14:37;29.50;;;15.40;;
24206;SDS011;12351;52.284;9.160;2024-03-07T16:17:25;23.83;;;13.80;;
24206;SDS011;12351;52.284;9.160;2024-03-07T16:20:12;24.25;;;14.13;;
24206;SDS011;12351;52.284;9.160;2024-03-07T16:22:59;26.07;;;14.45;;
24206;SDS011;12351;52.284;9.160;2024-03-07T16:25:48;21.23;;;13.15;;
24206;SDS011;12351;52.284;9.160;2024-03-07T16:28:35;24.18;;;13.88;;
24206;SDS011;12351;52.284;9.160;2024-03-07T16:31:23;21.73;;;13.38;;
24206;SDS011;12351;52.284;9.160;2024-03-07T16:34:12;27.52;;;13.75;;
24206;SDS011;12351;52.284;9.160;2024-03-07T16:37:00;23.87;;;13.18;;
24206;SDS011;12351;52.284;9.160;2024-03-07T16:39:50;24.35;;;13.90;;
24206;SDS011;12351;52.284;9.160;2024-03-07T16:42:38;24.12;;;13.48;;
24206;SDS011;12351;52.284;9.160;2024-03-07T16:45:28;24.07;;;13.78;;
24206;SDS011;12351;52.284;9.160;2024-03-07T16:48:16;23.02;;;13.35;;
24206;SDS011;12351;52.284;9.160;2024-03-07T16:51:04;25.88;;;13.72;;
24206;SDS011;12351;52.284;9.160;2024-03-07T16:53:53;24.72;;;14.03;;
24206;SDS011;12351;52.284;9.160;2024-03-07T16:56:41;22.87;;;13.68;;
24206;SDS011;12351;52.284;9.160;2024-03-07T16:59:30;23.30;;;14.03;;
24206;SDS011;12351;52.284;9.160;2024-03-07T17:02:17;21.90;;;13.18;;
24206;SDS011;12351;52.284;9.160;2024-03-07T17:05:07;23.07;;;13.08;;
24206;SDS011;12351;52.284;9.160;2024-03-07T17:07:55;23.95;;;13.58;;
24206;SDS011;12351;52.284;9.160;2024-03-07T17:10:44;25.70;;;14.05;;
24206;SDS011;12351;52.284;9.160;2024-03-07T17:13:31;23.22;;;14.35;;
24206;SDS011;12351;52.284;9.160;2024-03-07T17:16:20;28.47;;;14.20;;
24206;SDS011;12351;52.284;9.160;2024-03-07T17:19:08;24.15;;;14.15;;
24206;SDS011;12351;52.284;9.160;2024-03-07T17:21:57;24.27;;;14.58;;
24206;SDS011;12351;52.284;9.160;2024-03-07T17:24:44;26.15;;;14.68;;